sensor_id;sensor_type;location;lat;lon;timestamp;P1;durP1;ratioP1;P2;durP2;ratioP2
17382;SDS011;8809;51.892;8.384;2023-11-18T00:00:56;30.58;;;13.38;;
17382;SDS011;8809;51.892;8.384;2023-11-18T00:03:24;35.90;;;15.70;;
17382;SDS011;8809;51.892;8.384;2023-11-18T00:05:52;52.00;;;19.75;;
17382;SDS011;8809;51.892;8.384;2023-11-18T00:08:19;46.30;;;20.33;;
17382;SDS011;8809;51.892;8.384;2023-11-18T00:10:47;45.30;;;20.67;;
17382;SDS011;8809;51.892;8.384;2023-11-18T00:13:14;54.78;;;22.40;;
17382;SDS011;8809;51.892;8.384;2023-11-18T00:15:41;55.63;;;23.58;;
17382;SDS011;8809;51.892;8.384;2023-11-18T00:18:08;46.30;;;20.35;;
17382;SDS011;8809;51.892;8.384;2023-11-18T00:20:36;47.15;;;20.67;;
17382;SDS011;8809;51.892;8.384;2023-11-18T00:23:05;50.30;;;23.30;;
17382;SDS011;8809;51.892;8.384;2023-11-18T00:25:32;49.75;;;21.80;;
17382;SDS011;8809;51.892;8.384;2023-11-18T00:28:01;49.13;;;21.67;;
17382;SDS011;8809;51.892;8.384;2023-11-18T00:30:29;46.97;;;20.92;;
17382;SDS011;8809;51.892;8.384;2023-11-18T00:32:56;39.42;;;18.98;;
17382;SDS011;8809;51.892;8.384;2023-11-18T00:35:23;35.80;;;16.75;;
17382;SDS011;8809;51.892;8.384;2023-11-18T00:37:50;43.70;;;18.77;;
17382;SDS011;8809;51.892;8.384;2023-11-18T00:40:19;60.30;;;25.30;;
17382;SDS011;8809;51.892;8.384;2023-11-18T00:42:46;53.53;;;23.38;;
17382;SDS011;8809;51.892;8.384;2023-11-18T00:45:13;40.60;;;18.55;;
17382;SDS011;8809;51.892;8.384;2023-11-18T00:47:40;42.88;;;19.42;;
17382;SDS011;8809;51.892;8.384;2023-11-18T00:50:07;37.53;;;18.08;;
17382;SDS011;8809;51.892;8.384;2023-11-18T00:52:35;32.70;;;15.70;;
17382;SDS011;8809;51.892;8.384;2023-11-18T00:55:04;33.28;;;16.55;;
17382;SDS011;8809;51.892;8.384;2023-11-18T00:57:34;29.85;;;15.10;;
17382;SDS011;8809;51.892;8.384;2023-11-18T01:00:01;28.20;;;13.98;;
17382;SDS011;8809;51.892;8.384;2023-11-18T01:02:29;26.23;;;12.68;;
17382;SDS011;8809;51.892;8.384;2023-11-18T01:04:56;28.60;;;14.00;;
17382;SDS011;8809;51.892;8.384;2023-11-18T01:07:23;31.75;;;15.05;;
17382;SDS011;8809;51.892;8.384;2023-11-18T01:09:50;37.15;;;17.75;;
17382;SDS011;8809;51.892;8.384;2023-11-18T01:12:17;37.47;;;16.95;;
17382;SDS011;8809;51.892;8.384;2023-11-18T01:14:47;35.30;;;16.83;;
17382;SDS011;8809;51.892;8.384;2023-11-18T01:17:14;27.48;;;13.65;;
17382;SDS011;8809;51.892;8.384;2023-11-18T01:19:41;27.00;;;14.05;;
17382;SDS011;8809;51.892;8.384;2023-11-18T01:22:09;25.60;;;12.32;;
17382;SDS011;8809;51.892;8.384;2023-11-18T01:24:37;29.23;;;13.82;;
17382;SDS011;8809;51.892;8.384;2023-11-18T01:27:04;32.80;;;14.57;;
17382;SDS011;8809;51.892;8.384;2023-11-18T01:29:33;24.13;;;12.88;;
17382;SDS011;8809;51.892;8.384;2023-11-18T01:32:01;26.33;;;12.63;;
17382;SDS011;8809;51.892;8.384;2023-11-18T01:34:34;20.92;;;10.98;;
17382;SDS011;8809;51.892;8.384;2023-11-18T01:37:03;21.98;;;12.30;;
17382;SDS011;8809;51.892;8.384;2023-11-18T01:39:32;17.95;;;9.98;;
17382;SDS011;8809;51.892;8.384;2023-11-18T01:42:02;22.02;;;10.50;;
17382;SDS011;8809;51.892;8.384;2023-11-18T01:44:29;23.08;;;11.23;;
17382;SDS011;8809;51.892;8.384;2023-11-18T01:46:58;20.55;;;10.52;;
17382;SDS011;8809;51.892;8.384;2023-11-18T01:49:27;27.27;;;13.27;;
17382;SDS011;8809;51.892;8.384;2023-11-18T01:51:54;21.25;;;11.85;;
17382;SDS011;8809;51.892;8.384;2023-11-18T01:54:22;20.05;;;11.65;;
17382;SDS011;8809;51.892;8.384;2023-11-18T01:56:50;22.60;;;12.23;;
17382;SDS011;8809;51.892;8.384;2023-11-18T01:59:18;20.27;;;11.95;;
17382;SDS011;8809;51.892;8.384;2023-11-18T02:01:46;22.17;;;13.55;;
17382;SDS011;8809;51.892;8.384;2023-11-18T02:04:15;21.70;;;12.32;;
17382;SDS011;8809;51.892;8.384;2023-11-18T02:06:46;18.25;;;11.93;;
17382;SDS011;8809;51.892;8.384;2023-11-18T02:09:15;19.15;;;10.98;;
17382;SDS011;8809;51.892;8.384;2023-11-18T02:11:45;14.77;;;10.13;;
17382;SDS011;8809;51.892;8.384;2023-11-18T02:14:18;16.15;;;8.77;;
17382;SDS011;8809;51.892;8.384;2023-11-18T02:16:48;17.08;;;9.88;;
17382;SDS011;8809;51.892;8.384;2023-11-18T02:19:20;17.30;;;9.40;;
17382;SDS011;8809;51.892;8.384;2023-11-18T02:21:52;14.55;;;9.05;;
17382;SDS011;8809;51.892;8.384;2023-11-18T02:24:25;14.13;;;9.00;;
17382;SDS011;8809;51.892;8.384;2023-11-18T02:27:00;13.80;;;8.52;;
17382;SDS011;8809;51.892;8.384;2023-11-18T02:29:27;11.10;;;7.75;;
17382;SDS011;8809;51.892;8.384;2023-11-18T02:32:03;11.07;;;7.30;;
17382;SDS011;8809;51.892;8.384;2023-11-18T02:34:37;11.30;;;7.22;;
17382;SDS011;8809;51.892;8.384;2023-11-18T02:37:10;8.57;;;5.88;;
17382;SDS011;8809;51.892;8.384;2023-11-18T02:39:39;8.68;;;5.97;;
17382;SDS011;8809;51.892;8.384;2023-11-18T02:42:10;9.48;;;6.28;;
17382;SDS011;8809;51.892;8.384;2023-11-18T02:44:39;9.48;;;5.63;;
17382;SDS011;8809;51.892;8.384;2023-11-18T02:47:07;9.75;;;6.53;;
17382;SDS011;8809;51.892;8.384;2023-11-18T02:49:35;9.90;;;6.22;;
17382;SDS011;8809;51.892;8.384;2023-11-18T02:52:02;7.38;;;5.95;;
17382;SDS011;8809;51.892;8.384;2023-11-18T02:54:30;7.25;;;4.97;;
17382;SDS011;8809;51.892;8.384;2023-11-18T02:56:57;8.00;;;5.55;;
17382;SDS011;8809;51.892;8.384;2023-11-18T02:59:28;9.07;;;6.45;;
17382;SDS011;8809;51.892;8.384;2023-11-18T03:01:56;7.70;;;5.30;;
17382;SDS011;8809;51.892;8.384;2023-11-18T03:04:23;7.32;;;5.40;;
17382;SDS011;8809;51.892;8.384;2023-11-18T03:06:50;7.90;;;5.57;;
17382;SDS011;8809;51.892;8.384;2023-11-18T03:09:17;9.88;;;6.00;;
17382;SDS011;8809;51.892;8.384;2023-11-18T03:11:44;8.82;;;5.60;;
17382;SDS011;8809;51.892;8.384;2023-11-18T03:14:11;8.80;;;6.45;;
17382;SDS011;8809;51.892;8.384;2023-11-18T03:16:41;7.13;;;5.28;;
17382;SDS011;8809;51.892;8.384;2023-11-18T03:19:08;8.23;;;5.95;;
17382;SDS011;8809;51.892;8.384;2023-11-18T03:21:36;7.70;;;5.90;;
17382;SDS011;8809;51.892;8.384;2023-11-18T03:24:04;9.20;;;6.30;;
17382;SDS011;8809;51.892;8.384;2023-11-18T03:26:32;8.48;;;5.60;;
17382;SDS011;8809;51.892;8.384;2023-11-18T03:28:59;8.30;;;5.88;;
17382;SDS011;8809;51.892;8.384;2023-11-18T03:31:30;10.35;;;7.63;;
17382;SDS011;8809;51.892;8.384;2023-11-18T03:33:59;8.77;;;5.88;;
17382;SDS011;8809;51.892;8.384;2023-11-18T03:36:26;7.75;;;5.38;;
17382;SDS011;8809;51.892;8.384;2023-11-18T03:38:53;7.18;;;5.32;;
17382;SDS011;8809;51.892;8.384;2023-11-18T03:41:20;9.68;;;6.60;;
17382;SDS011;8809;51.892;8.384;2023-11-18T03:43:49;9.40;;;6.38;;
17382;SDS011;8809;51.892;8.384;2023-11-18T03:46:16;9.57;;;6.85;;
17382;SDS011;8809;51.892;8.384;2023-11-18T03:48:43;8.15;;;5.78;;
17382;SDS011;8809;51.892;8.384;2023-11-18T03:51:12;8.30;;;6.10;;
17382;SDS011;8809;51.892;8.384;2023-11-18T03:53:42;8.52;;;6.38;;
17382;SDS011;8809;51.892;8.384;2023-11-18T03:56:09;8.48;;;6.38;;
17382;SDS011;8809;51.892;8.384;2023-11-18T03:58:36;6.88;;;5.28;;
17382;SDS011;8809;51.892;8.384;2023-11-18T04:01:03;8.82;;;6.05;;
17382;SDS011;8809;51.892;8.384;2023-11-18T04:03:31;8.07;;;6.10;;
17382;SDS011;8809;51.892;8.384;2023-11-18T04:05:58;8.90;;;6.30;;
17382;SDS011;8809;51.892;8.384;2023-11-18T04:08:27;9.95;;;6.70;;
17382;SDS011;8809;51.892;8.384;2023-11-18T04:10:54;7.90;;;6.25;;
17382;SDS011;8809;51.892;8.384;2023-11-18T04:13:22;7.30;;;5.85;;
17382;SDS011;8809;51.892;8.384;2023-11-18T04:15:48;8.95;;;6.25;;
17382;SDS011;8809;51.892;8.384;2023-11-18T04:18:16;7.43;;;6.03;;
17382;SDS011;8809;51.892;8.384;2023-11-18T04:20:44;9.23;;;6.70;;
17382;SDS011;8809;51.892;8.384;2023-11-18T04:23:11;8.73;;;7.22;;
17382;SDS011;8809;51.892;8.384;2023-11-18T04:25:41;9.77;;;7.35;;
17382;SDS011;8809;51.892;8.384;2023-11-18T04:28:08;10.02;;;7.15;;
17382;SDS011;8809;51.892;8.384;2023-11-18T04:30:36;7.95;;;6.03;;
17382;SDS011;8809;51.892;8.384;2023-11-18T04:33:03;8.07;;;5.68;;
17382;SDS011;8809;51.892;8.384;2023-11-18T04:35:30;8.50;;;6.35;;
17382;SDS011;8809;51.892;8.384;2023-11-18T04:37:59;7.47;;;5.38;;
17382;SDS011;8809;51.892;8.384;2023-11-18T04:40:27;8.45;;;6.00;;
17382;SDS011;8809;51.892;8.384;2023-11-18T04:42:55;8.85;;;6.50;;
17382;SDS011;8809;51.892;8.384;2023-11-18T04:45:22;9.60;;;6.25;;
17382;SDS011;8809;51.892;8.384;2023-11-18T04:47:49;8.90;;;5.88;;
17382;SDS011;8809;51.892;8.384;2023-11-18T04:50:17;12.68;;;7.80;;
17382;SDS011;8809;51.892;8.384;2023-11-18T04:52:44;11.52;;;8.18;;
17382;SDS011;8809;51.892;8.384;2023-11-18T04:55:11;14.63;;;9.32;;
17382;SDS011;8809;51.892;8.384;2023-11-18T04:57:39;13.20;;;8.30;;
17382;SDS011;8809;51.892;8.384;2023-11-18T05:00:08;12.40;;;8.27;;
17382;SDS011;8809;51.892;8.384;2023-11-18T05:02:37;11.13;;;7.50;;
17382;SDS011;8809;51.892;8.384;2023-11-18T05:05:04;12.73;;;8.07;;
17382;SDS011;8809;51.892;8.384;2023-11-18T05:07:32;10.48;;;7.22;;
17382;SDS011;8809;51.892;8.384;2023-11-18T05:10:00;10.82;;;6.75;;
17382;SDS011;8809;51.892;8.384;2023-11-18T05:12:28;10.85;;;7.53;;
17382;SDS011;8809;51.892;8.384;2023-11-18T05:14:55;10.52;;;6.88;;
17382;SDS011;8809;51.892;8.384;2023-11-18T05:17:24;10.82;;;7.28;;
17382;SDS011;8809;51.892;8.384;2023-11-18T05:19:52;10.05;;;6.30;;
17382;SDS011;8809;51.892;8.384;2023-11-18T05:22:19;9.00;;;6.60;;
17382;SDS011;8809;51.892;8.384;2023-11-18T05:24:46;8.77;;;6.20;;
17382;SDS011;8809;51.892;8.384;2023-11-18T05:27:18;9.30;;;6.97;;
17382;SDS011;8809;51.892;8.384;2023-11-18T05:29:45;9.40;;;6.55;;
17382;SDS011;8809;51.892;8.384;2023-11-18T05:32:19;8.88;;;6.22;;
17382;SDS011;8809;51.892;8.384;2023-11-18T05:34:50;7.68;;;5.40;;
17382;SDS011;8809;51.892;8.384;2023-11-18T05:37:19;6.50;;;4.85;;
17382;SDS011;8809;51.892;8.384;2023-11-18T05:39:46;9.60;;;6.22;;
17382;SDS011;8809;51.892;8.384;2023-11-18T05:42:18;9.35;;;6.45;;
17382;SDS011;8809;51.892;8.384;2023-11-18T05:44:46;9.52;;;6.13;;
17382;SDS011;8809;51.892;8.384;2023-11-18T05:47:13;8.50;;;5.95;;
17382;SDS011;8809;51.892;8.384;2023-11-18T05:49:40;6.63;;;5.40;;
17382;SDS011;8809;51.892;8.384;2023-11-18T05:52:09;8.10;;;5.43;;
17382;SDS011;8809;51.892;8.384;2023-11-18T05:54:37;7.18;;;5.60;;
17382;SDS011;8809;51.892;8.384;2023-11-18T05:57:04;8.15;;;5.68;;
17382;SDS011;8809;51.892;8.384;2023-11-18T05:59:32;7.63;;;5.65;;
17382;SDS011;8809;51.892;8.384;2023-11-18T06:01:59;9.43;;;6.30;;
17382;SDS011;8809;51.892;8.384;2023-11-18T06:04:28;7.72;;;5.63;;
17382;SDS011;8809;51.892;8.384;2023-11-18T06:06:56;7.80;;;5.95;;
17382;SDS011;8809;51.892;8.384;2023-11-18T06:09:24;9.88;;;6.60;;
17382;SDS011;8809;51.892;8.384;2023-11-18T06:11:53;8.50;;;6.28;;
17382;SDS011;8809;51.892;8.384;2023-11-18T06:14:20;6.95;;;5.40;;
17382;SDS011;8809;51.892;8.384;2023-11-18T06:16:47;9.20;;;5.63;;
17382;SDS011;8809;51.892;8.384;2023-11-18T06:19:16;8.30;;;5.93;;
17382;SDS011;8809;51.892;8.384;2023-11-18T06:21:44;8.52;;;6.22;;
17382;SDS011;8809;51.892;8.384;2023-11-18T06:24:11;11.50;;;6.65;;
17382;SDS011;8809;51.892;8.384;2023-11-18T06:26:41;10.27;;;6.78;;
17382;SDS011;8809;51.892;8.384;2023-11-18T06:29:08;10.05;;;6.45;;
17382;SDS011;8809;51.892;8.384;2023-11-18T06:31:35;12.23;;;7.35;;
17382;SDS011;8809;51.892;8.384;2023-11-18T06:34:02;11.10;;;6.90;;
17382;SDS011;8809;51.892;8.384;2023-11-18T06:36:30;10.35;;;7.43;;
17382;SDS011;8809;51.892;8.384;2023-11-18T06:38:57;11.95;;;7.18;;
17382;SDS011;8809;51.892;8.384;2023-11-18T06:41:24;13.10;;;8.35;;
17382;SDS011;8809;51.892;8.384;2023-11-18T06:44:00;13.25;;;8.93;;
17382;SDS011;8809;51.892;8.384;2023-11-18T06:46:34;13.07;;;8.98;;
17382;SDS011;8809;51.892;8.384;2023-11-18T06:49:05;12.27;;;8.63;;
17382;SDS011;8809;51.892;8.384;2023-11-18T06:51:33;13.25;;;9.40;;
17382;SDS011;8809;51.892;8.384;2023-11-18T06:54:03;19.25;;;11.73;;
17382;SDS011;8809;51.892;8.384;2023-11-18T06:56:34;14.18;;;8.90;;
17382;SDS011;8809;51.892;8.384;2023-11-18T06:59:05;17.92;;;10.93;;
17382;SDS011;8809;51.892;8.384;2023-11-18T07:01:33;16.10;;;9.60;;
17382;SDS011;8809;51.892;8.384;2023-11-18T07:04:00;16.08;;;9.30;;
17382;SDS011;8809;51.892;8.384;2023-11-18T07:06:28;14.50;;;8.48;;
17382;SDS011;8809;51.892;8.384;2023-11-18T07:08:56;15.52;;;9.38;;
17382;SDS011;8809;51.892;8.384;2023-11-18T07:11:26;14.52;;;8.55;;
17382;SDS011;8809;51.892;8.384;2023-11-18T07:13:57;13.18;;;8.43;;
17382;SDS011;8809;51.892;8.384;2023-11-18T07:16:26;16.02;;;9.40;;
17382;SDS011;8809;51.892;8.384;2023-11-18T07:18:53;13.93;;;8.93;;
17382;SDS011;8809;51.892;8.384;2023-11-18T07:21:19;12.15;;;8.13;;
17382;SDS011;8809;51.892;8.384;2023-11-18T07:23:46;12.63;;;7.57;;
17382;SDS011;8809;51.892;8.384;2023-11-18T07:26:13;13.55;;;7.90;;
17382;SDS011;8809;51.892;8.384;2023-11-18T07:28:40;12.48;;;7.85;;
17382;SDS011;8809;51.892;8.384;2023-11-18T07:31:09;12.05;;;8.20;;
17382;SDS011;8809;51.892;8.384;2023-11-18T07:33:38;13.60;;;8.82;;
17382;SDS011;8809;51.892;8.384;2023-11-18T07:36:05;15.05;;;8.95;;
17382;SDS011;8809;51.892;8.384;2023-11-18T07:38:36;12.68;;;8.63;;
17382;SDS011;8809;51.892;8.384;2023-11-18T07:41:03;12.65;;;8.85;;
17382;SDS011;8809;51.892;8.384;2023-11-18T07:43:33;13.57;;;7.97;;
17382;SDS011;8809;51.892;8.384;2023-11-18T07:46:01;11.95;;;7.57;;
17382;SDS011;8809;51.892;8.384;2023-11-18T07:48:29;11.60;;;7.45;;
17382;SDS011;8809;51.892;8.384;2023-11-18T07:50:58;13.05;;;8.20;;
17382;SDS011;8809;51.892;8.384;2023-11-18T07:53:25;12.18;;;7.63;;
17382;SDS011;8809;51.892;8.384;2023-11-18T07:55:55;13.25;;;8.05;;
17382;SDS011;8809;51.892;8.384;2023-11-18T07:58:23;13.35;;;9.23;;
17382;SDS011;8809;51.892;8.384;2023-11-18T08:00:52;13.82;;;8.30;;
17382;SDS011;8809;51.892;8.384;2023-11-18T08:03:20;10.63;;;7.88;;
17382;SDS011;8809;51.892;8.384;2023-11-18T08:05:47;10.82;;;8.10;;
17382;SDS011;8809;51.892;8.384;2023-11-18T08:08:17;10.93;;;7.70;;
17382;SDS011;8809;51.892;8.384;2023-11-18T08:10:46;11.02;;;7.78;;
17382;SDS011;8809;51.892;8.384;2023-11-18T08:13:13;10.98;;;6.88;;
17382;SDS011;8809;51.892;8.384;2023-11-18T08:15:41;10.90;;;7.30;;
17382;SDS011;8809;51.892;8.384;2023-11-18T08:18:10;9.75;;;7.35;;
17382;SDS011;8809;51.892;8.384;2023-11-18T08:20:38;10.10;;;6.95;;
17382;SDS011;8809;51.892;8.384;2023-11-18T08:23:06;12.00;;;8.00;;
17382;SDS011;8809;51.892;8.384;2023-11-18T08:25:35;11.65;;;8.07;;
17382;SDS011;8809;51.892;8.384;2023-11-18T08:28:04;14.18;;;8.85;;
17382;SDS011;8809;51.892;8.384;2023-11-18T08:30:32;15.30;;;8.82;;
17382;SDS011;8809;51.892;8.384;2023-11-18T08:33:00;13.85;;;9.50;;
17382;SDS011;8809;51.892;8.384;2023-11-18T08:35:29;13.13;;;8.68;;
17382;SDS011;8809;51.892;8.384;2023-11-18T08:37:57;13.30;;;9.15;;
17382;SDS011;8809;51.892;8.384;2023-11-18T08:40:24;17.02;;;9.48;;
17382;SDS011;8809;51.892;8.384;2023-11-18T08:42:53;16.70;;;10.40;;
17382;SDS011;8809;51.892;8.384;2023-11-18T08:45:21;14.30;;;9.52;;
17382;SDS011;8809;51.892;8.384;2023-11-18T08:47:53;13.45;;;8.95;;
17382;SDS011;8809;51.892;8.384;2023-11-18T08:50:20;11.57;;;8.07;;
17382;SDS011;8809;51.892;8.384;2023-11-18T08:52:49;10.52;;;7.32;;
17382;SDS011;8809;51.892;8.384;2023-11-18T08:55:19;13.57;;;7.85;;
17382;SDS011;8809;51.892;8.384;2023-11-18T08:57:48;14.07;;;9.00;;
17382;SDS011;8809;51.892;8.384;2023-11-18T09:00:29;10.23;;;7.65;;
17382;SDS011;8809;51.892;8.384;2023-11-18T09:03:14;12.20;;;7.82;;
17382;SDS011;8809;51.892;8.384;2023-11-18T09:05:50;12.27;;;7.85;;
17382;SDS011;8809;51.892;8.384;2023-11-18T09:08:24;11.65;;;8.07;;
17382;SDS011;8809;51.892;8.384;2023-11-18T09:10:52;14.38;;;7.55;;
17382;SDS011;8809;51.892;8.384;2023-11-18T09:13:20;11.48;;;7.63;;
17382;SDS011;8809;51.892;8.384;2023-11-18T09:15:52;11.65;;;7.95;;
17382;SDS011;8809;51.892;8.384;2023-11-18T09:18:19;11.85;;;7.47;;
17382;SDS011;8809;51.892;8.384;2023-11-18T09:20:47;11.82;;;8.18;;
17382;SDS011;8809;51.892;8.384;2023-11-18T09:23:14;12.02;;;8.20;;
17382;SDS011;8809;51.892;8.384;2023-11-18T09:25:41;11.65;;;8.00;;
17382;SDS011;8809;51.892;8.384;2023-11-18T09:28:12;11.85;;;8.15;;
17382;SDS011;8809;51.892;8.384;2023-11-18T09:30:40;11.98;;;7.97;;
17382;SDS011;8809;51.892;8.384;2023-11-18T09:33:17;12.10;;;8.20;;
17382;SDS011;8809;51.892;8.384;2023-11-18T09:35:51;11.25;;;6.68;;
17382;SDS011;8809;51.892;8.384;2023-11-18T09:38:24;9.88;;;7.07;;
17382;SDS011;8809;51.892;8.384;2023-11-18T09:40:54;10.65;;;6.57;;
17382;SDS011;8809;51.892;8.384;2023-11-18T09:43:23;10.18;;;7.05;;
17382;SDS011;8809;51.892;8.384;2023-11-18T09:45:54;10.63;;;6.95;;
17382;SDS011;8809;51.892;8.384;2023-11-18T09:48:23;10.73;;;7.45;;
17382;SDS011;8809;51.892;8.384;2023-11-18T09:50:53;11.27;;;7.18;;
17382;SDS011;8809;51.892;8.384;2023-11-18T09:53:24;10.50;;;7.75;;
17382;SDS011;8809;51.892;8.384;2023-11-18T09:55:59;9.65;;;6.95;;
17382;SDS011;8809;51.892;8.384;2023-11-18T09:58:37;8.27;;;6.50;;
17382;SDS011;8809;51.892;8.384;2023-11-18T10:01:09;9.20;;;6.72;;
17382;SDS011;8809;51.892;8.384;2023-11-18T10:03:41;10.13;;;7.07;;
17382;SDS011;8809;51.892;8.384;2023-11-18T10:06:11;9.55;;;6.93;;
17382;SDS011;8809;51.892;8.384;2023-11-18T10:08:40;10.75;;;8.43;;
17382;SDS011;8809;51.892;8.384;2023-11-18T10:11:11;10.52;;;7.25;;
17382;SDS011;8809;51.892;8.384;2023-11-18T10:13:39;11.32;;;7.57;;
17382;SDS011;8809;51.892;8.384;2023-11-18T10:16:09;8.23;;;6.53;;
17382;SDS011;8809;51.892;8.384;2023-11-18T10:18:38;9.18;;;6.57;;
17382;SDS011;8809;51.892;8.384;2023-11-18T10:21:16;8.02;;;5.97;;
17382;SDS011;8809;51.892;8.384;2023-11-18T10:23:58;7.95;;;5.97;;
17382;SDS011;8809;51.892;8.384;2023-11-18T10:26:27;8.45;;;6.32;;
17382;SDS011;8809;51.892;8.384;2023-11-18T10:29:03;8.25;;;5.80;;
17382;SDS011;8809;51.892;8.384;2023-11-18T10:31:33;8.98;;;6.63;;
17382;SDS011;8809;51.892;8.384;2023-11-18T10:34:01;10.35;;;6.60;;
17382;SDS011;8809;51.892;8.384;2023-11-18T10:36:30;9.25;;;6.32;;
17382;SDS011;8809;51.892;8.384;2023-11-18T10:38:58;7.97;;;5.82;;
17382;SDS011;8809;51.892;8.384;2023-11-18T10:41:39;9.38;;;7.28;;
17382;SDS011;8809;51.892;8.384;2023-11-18T10:44:09;9.20;;;6.97;;
17382;SDS011;8809;51.892;8.384;2023-11-18T10:46:40;9.70;;;7.38;;
17382;SDS011;8809;51.892;8.384;2023-11-18T10:49:08;10.40;;;7.35;;
17382;SDS011;8809;51.892;8.384;2023-11-18T10:51:37;8.73;;;6.63;;
17382;SDS011;8809;51.892;8.384;2023-11-18T10:54:06;9.32;;;6.93;;
17382;SDS011;8809;51.892;8.384;2023-11-18T10:56:46;8.48;;;6.35;;
17382;SDS011;8809;51.892;8.384;2023-11-18T10:59:13;7.40;;;6.38;;
17382;SDS011;8809;51.892;8.384;2023-11-18T11:01:42;7.55;;;6.43;;
17382;SDS011;8809;51.892;8.384;2023-11-18T11:04:10;10.60;;;6.78;;
17382;SDS011;8809;51.892;8.384;2023-11-18T11:06:44;10.95;;;7.30;;
17382;SDS011;8809;51.892;8.384;2023-11-18T11:09:18;9.50;;;7.00;;
17382;SDS011;8809;51.892;8.384;2023-11-18T11:11:52;10.68;;;7.63;;
17382;SDS011;8809;51.892;8.384;2023-11-18T11:14:22;9.48;;;7.22;;
17382;SDS011;8809;51.892;8.384;2023-11-18T11:17:02;10.40;;;7.43;;
17382;SDS011;8809;51.892;8.384;2023-11-18T11:19:38;9.95;;;7.85;;
17382;SDS011;8809;51.892;8.384;2023-11-18T11:22:22;9.70;;;8.25;;
17382;SDS011;8809;51.892;8.384;2023-11-18T11:24:59;8.85;;;6.38;;
17382;SDS011;8809;51.892;8.384;2023-11-18T11:27:38;8.45;;;6.80;;
17382;SDS011;8809;51.892;8.384;2023-11-18T11:30:20;9.55;;;7.03;;
17382;SDS011;8809;51.892;8.384;2023-11-18T11:32:51;9.70;;;7.00;;
17382;SDS011;8809;51.892;8.384;2023-11-18T11:35:21;10.07;;;7.75;;
17382;SDS011;8809;51.892;8.384;2023-11-18T11:37:52;10.27;;;7.45;;
17382;SDS011;8809;51.892;8.384;2023-11-18T11:40:22;9.77;;;7.40;;
17382;SDS011;8809;51.892;8.384;2023-11-18T11:42:49;10.20;;;7.95;;
17382;SDS011;8809;51.892;8.384;2023-11-18T11:45:21;9.25;;;7.78;;
17382;SDS011;8809;51.892;8.384;2023-11-18T11:47:54;10.95;;;7.13;;
17382;SDS011;8809;51.892;8.384;2023-11-18T11:50:44;9.73;;;6.75;;
17382;SDS011;8809;51.892;8.384;2023-11-18T11:53:24;8.18;;;6.40;;
17382;SDS011;8809;51.892;8.384;2023-11-18T11:55:56;7.80;;;5.82;;
17382;SDS011;8809;51.892;8.384;2023-11-18T11:58:31;9.85;;;6.88;;
17382;SDS011;8809;51.892;8.384;2023-11-18T12:01:02;8.73;;;6.60;;
17382;SDS011;8809;51.892;8.384;2023-11-18T12:03:43;8.45;;;6.88;;
17382;SDS011;8809;51.892;8.384;2023-11-18T12:06:13;6.70;;;5.75;;
17382;SDS011;8809;51.892;8.384;2023-11-18T12:08:48;7.88;;;6.00;;
17382;SDS011;8809;51.892;8.384;2023-11-18T12:11:17;6.65;;;5.47;;
17382;SDS011;8809;51.892;8.384;2023-11-18T12:19:40;7.97;;;6.50;;
17382;SDS011;8809;51.892;8.384;2023-11-18T12:22:14;7.47;;;6.55;;
17382;SDS011;8809;51.892;8.384;2023-11-18T12:28:14;8.05;;;6.72;;
17382;SDS011;8809;51.892;8.384;2023-11-18T12:30:42;8.85;;;6.30;;
17382;SDS011;8809;51.892;8.384;2023-11-18T12:33:21;9.45;;;6.75;;
17382;SDS011;8809;51.892;8.384;2023-11-18T12:39:04;7.93;;;5.57;;
17382;SDS011;8809;51.892;8.384;2023-11-18T12:41:54;8.07;;;5.90;;
17382;SDS011;8809;51.892;8.384;2023-11-18T12:44:35;7.65;;;5.72;;
17382;SDS011;8809;51.892;8.384;2023-11-18T12:47:05;7.65;;;5.63;;
17382;SDS011;8809;51.892;8.384;2023-11-18T12:49:40;6.13;;;4.80;;
17382;SDS011;8809;51.892;8.384;2023-11-18T12:52:09;7.07;;;5.70;;
17382;SDS011;8809;51.892;8.384;2023-11-18T12:54:40;13.25;;;8.85;;
17382;SDS011;8809;51.892;8.384;2023-11-18T12:57:09;11.07;;;8.10;;
17382;SDS011;8809;51.892;8.384;2023-11-18T12:59:41;14.02;;;8.10;;
17382;SDS011;8809;51.892;8.384;2023-11-18T13:02:09;11.73;;;7.28;;
17382;SDS011;8809;51.892;8.384;2023-11-18T13:04:39;9.90;;;7.15;;
17382;SDS011;8809;51.892;8.384;2023-11-18T13:07:06;8.68;;;6.88;;
17382;SDS011;8809;51.892;8.384;2023-11-18T13:09:36;9.98;;;6.90;;
17382;SDS011;8809;51.892;8.384;2023-11-18T13:12:06;8.90;;;6.95;;
17382;SDS011;8809;51.892;8.384;2023-11-18T13:14:35;9.40;;;7.05;;
17382;SDS011;8809;51.892;8.384;2023-11-18T13:17:08;10.07;;;7.20;;
17382;SDS011;8809;51.892;8.384;2023-11-18T13:19:37;9.15;;;6.82;;
17382;SDS011;8809;51.892;8.384;2023-11-18T13:22:04;11.73;;;8.13;;
17382;SDS011;8809;51.892;8.384;2023-11-18T13:24:33;12.20;;;8.23;;
17382;SDS011;8809;51.892;8.384;2023-11-18T13:27:00;9.95;;;7.38;;
17382;SDS011;8809;51.892;8.384;2023-11-18T13:29:30;11.35;;;7.38;;
17382;SDS011;8809;51.892;8.384;2023-11-18T13:31:57;9.90;;;6.97;;
17382;SDS011;8809;51.892;8.384;2023-11-18T13:34:30;9.07;;;6.40;;
17382;SDS011;8809;51.892;8.384;2023-11-18T13:36:59;10.85;;;7.35;;
17382;SDS011;8809;51.892;8.384;2023-11-18T13:39:27;9.23;;;6.50;;
17382;SDS011;8809;51.892;8.384;2023-11-18T13:41:56;10.80;;;7.72;;
17382;SDS011;8809;51.892;8.384;2023-11-18T13:44:33;12.50;;;7.88;;
17382;SDS011;8809;51.892;8.384;2023-11-18T13:47:00;12.40;;;8.23;;
17382;SDS011;8809;51.892;8.384;2023-11-18T13:49:32;11.32;;;7.53;;
17382;SDS011;8809;51.892;8.384;2023-11-18T13:52:00;8.25;;;6.85;;
17382;SDS011;8809;51.892;8.384;2023-11-18T13:54:28;10.13;;;6.55;;
17382;SDS011;8809;51.892;8.384;2023-11-18T13:56:55;8.25;;;6.45;;
17382;SDS011;8809;51.892;8.384;2023-11-18T13:59:24;9.80;;;6.25;;
17382;SDS011;8809;51.892;8.384;2023-11-18T14:01:52;7.45;;;5.50;;
17382;SDS011;8809;51.892;8.384;2023-11-18T14:04:22;8.68;;;5.70;;
17382;SDS011;8809;51.892;8.384;2023-11-18T14:06:56;8.38;;;5.80;;
17382;SDS011;8809;51.892;8.384;2023-11-18T14:09:24;8.23;;;6.40;;
17382;SDS011;8809;51.892;8.384;2023-11-18T14:11:52;12.25;;;7.82;;
17382;SDS011;8809;51.892;8.384;2023-11-18T14:14:21;11.45;;;6.90;;
17382;SDS011;8809;51.892;8.384;2023-11-18T14:16:50;9.75;;;6.88;;
17382;SDS011;8809;51.892;8.384;2023-11-18T14:19:19;10.65;;;7.53;;
17382;SDS011;8809;51.892;8.384;2023-11-18T14:21:47;10.07;;;6.47;;
17382;SDS011;8809;51.892;8.384;2023-11-18T14:24:16;9.07;;;7.72;;
17382;SDS011;8809;51.892;8.384;2023-11-18T14:26:44;8.70;;;6.40;;
17382;SDS011;8809;51.892;8.384;2023-11-18T14:29:12;8.07;;;6.30;;
17382;SDS011;8809;51.892;8.384;2023-11-18T14:31:39;9.50;;;7.45;;
17382;SDS011;8809;51.892;8.384;2023-11-18T14:34:06;7.60;;;6.15;;
17382;SDS011;8809;51.892;8.384;2023-11-18T14:36:36;8.52;;;5.90;;
17382;SDS011;8809;51.892;8.384;2023-11-18T14:39:03;7.65;;;5.95;;
17382;SDS011;8809;51.892;8.384;2023-11-18T14:41:37;10.90;;;6.60;;
17382;SDS011;8809;51.892;8.384;2023-11-18T14:44:05;8.70;;;6.13;;
17382;SDS011;8809;51.892;8.384;2023-11-18T14:46:35;10.70;;;6.40;;
17382;SDS011;8809;51.892;8.384;2023-11-18T14:49:03;8.45;;;5.63;;
17382;SDS011;8809;51.892;8.384;2023-11-18T14:51:31;9.10;;;6.72;;
17382;SDS011;8809;51.892;8.384;2023-11-18T14:53:59;10.20;;;6.65;;
17382;SDS011;8809;51.892;8.384;2023-11-18T14:56:26;12.10;;;7.13;;
17382;SDS011;8809;51.892;8.384;2023-11-18T14:58:55;12.13;;;6.13;;
17382;SDS011;8809;51.892;8.384;2023-11-18T15:01:22;10.70;;;6.45;;
17382;SDS011;8809;51.892;8.384;2023-11-18T15:03:49;10.60;;;6.43;;
17382;SDS011;8809;51.892;8.384;2023-11-18T15:06:23;12.20;;;6.20;;
17382;SDS011;8809;51.892;8.384;2023-11-18T15:08:51;9.10;;;5.82;;
17382;SDS011;8809;51.892;8.384;2023-11-18T15:11:20;8.05;;;6.20;;
17382;SDS011;8809;51.892;8.384;2023-11-18T15:13:48;7.90;;;5.20;;
17382;SDS011;8809;51.892;8.384;2023-11-18T15:16:19;7.88;;;5.40;;
17382;SDS011;8809;51.892;8.384;2023-11-18T15:18:46;8.93;;;5.80;;